sensor_id;sensor_type;location;lat;lon;timestamp;P1;durP1;ratioP1;P2;durP2;ratioP2
10416;SDS011;62605;49.432;8.680;2023-11-19T00:02:07;2.10;;;1.30;;
10416;SDS011;62605;49.432;8.680;2023-11-19T00:04:36;2.63;;;1.30;;
10416;SDS011;62605;49.432;8.680;2023-11-19T00:07:04;1.60;;;1.20;;
10416;SDS011;62605;49.432;8.680;2023-11-19T00:09:33;1.57;;;1.20;;
10416;SDS011;62605;49.432;8.680;2023-11-19T00:12:03;1.40;;;1.17;;
10416;SDS011;62605;49.432;8.680;2023-11-19T00:14:31;1.20;;;1.03;;
10416;SDS011;62605;49.432;8.680;2023-11-19T00:16:58;2.80;;;1.37;;
10416;SDS011;62605;49.432;8.680;2023-11-19T00:19:27;1.40;;;1.03;;
10416;SDS011;62605;49.432;8.680;2023-11-19T00:21:55;1.10;;;1.00;;
10416;SDS011;62605;49.432;8.680;2023-11-19T00:24:28;2.00;;;1.17;;
10416;SDS011;62605;49.432;8.680;2023-11-19T00:26:55;0.80;;;0.80;;
10416;SDS011;62605;49.432;8.680;2023-11-19T00:29:23;1.87;;;1.00;;
10416;SDS011;62605;49.432;8.680;2023-11-19T00:31:50;2.60;;;1.27;;
10416;SDS011;62605;49.432;8.680;2023-11-19T00:34:17;1.13;;;0.90;;
10416;SDS011;62605;49.432;8.680;2023-11-19T00:36:48;1.10;;;1.00;;
10416;SDS011;62605;49.432;8.680;2023-11-19T00:39:15;1.30;;;0.90;;
10416;SDS011;62605;49.432;8.680;2023-11-19T00:41:43;0.60;;;0.57;;
10416;SDS011;62605;49.432;8.680;2023-11-19T00:44:11;0.70;;;0.70;;
10416;SDS011;62605;49.432;8.680;2023-11-19T00:46:38;0.80;;;0.80;;
10416;SDS011;62605;49.432;8.680;2023-11-19T00:49:06;0.77;;;0.77;;
10416;SDS011;62605;49.432;8.680;2023-11-19T00:51:33;0.90;;;0.73;;
10416;SDS011;62605;49.432;8.680;2023-11-19T00:54:02;0.80;;;0.80;;
10416;SDS011;62605;49.432;8.680;2023-11-19T00:56:29;0.60;;;0.60;;
10416;SDS011;62605;49.432;8.680;2023-11-19T00:58:57;0.93;;;0.70;;
10416;SDS011;62605;49.432;8.680;2023-11-19T01:01:25;0.60;;;0.60;;
10416;SDS011;62605;49.432;8.680;2023-11-19T01:03:52;0.50;;;0.40;;
10416;SDS011;62605;49.432;8.680;2023-11-19T01:06:26;0.70;;;0.70;;
10416;SDS011;62605;49.432;8.680;2023-11-19T01:08:54;1.33;;;0.60;;
10416;SDS011;62605;49.432;8.680;2023-11-19T01:11:25;0.93;;;0.73;;
10416;SDS011;62605;49.432;8.680;2023-11-19T01:13:53;1.27;;;0.53;;
10416;SDS011;62605;49.432;8.680;2023-11-19T01:16:20;0.50;;;0.40;;
10416;SDS011;62605;49.432;8.680;2023-11-19T01:18:48;0.60;;;0.60;;
10416;SDS011;62605;49.432;8.680;2023-11-19T01:21:15;0.60;;;0.60;;
10416;SDS011;62605;49.432;8.680;2023-11-19T01:23:42;0.50;;;0.50;;
10416;SDS011;62605;49.432;8.680;2023-11-19T01:26:10;0.60;;;0.60;;
10416;SDS011;62605;49.432;8.680;2023-11-19T01:28:42;0.40;;;0.40;;
10416;SDS011;62605;49.432;8.680;2023-11-19T01:31:12;0.70;;;0.50;;
10416;SDS011;62605;49.432;8.680;2023-11-19T01:33:45;0.83;;;0.40;;
10416;SDS011;62605;49.432;8.680;2023-11-19T01:36:13;0.30;;;0.30;;
10416;SDS011;62605;49.432;8.680;2023-11-19T01:38:44;0.63;;;0.50;;
10416;SDS011;62605;49.432;8.680;2023-11-19T01:41:12;0.40;;;0.40;;
10416;SDS011;62605;49.432;8.680;2023-11-19T01:43:41;0.40;;;0.40;;
10416;SDS011;62605;49.432;8.680;2023-11-19T01:46:08;0.37;;;0.37;;
10416;SDS011;62605;49.432;8.680;2023-11-19T01:48:36;0.40;;;0.40;;
10416;SDS011;62605;49.432;8.680;2023-11-19T01:51:12;0.30;;;0.30;;
10416;SDS011;62605;49.432;8.680;2023-11-19T01:53:41;0.30;;;0.30;;
10416;SDS011;62605;49.432;8.680;2023-11-19T01:56:11;0.87;;;0.40;;
10416;SDS011;62605;49.432;8.680;2023-11-19T01:58:42;0.33;;;0.33;;
10416;SDS011;62605;49.432;8.680;2023-11-19T02:01:12;0.70;;;0.40;;
10416;SDS011;62605;49.432;8.680;2023-11-19T02:03:39;0.20;;;0.20;;
10416;SDS011;62605;49.432;8.680;2023-11-19T02:06:07;0.77;;;0.60;;
10416;SDS011;62605;49.432;8.680;2023-11-19T02:08:35;0.33;;;0.33;;
10416;SDS011;62605;49.432;8.680;2023-11-19T02:11:04;0.40;;;0.40;;
10416;SDS011;62605;49.432;8.680;2023-11-19T02:13:33;0.40;;;0.40;;
10416;SDS011;62605;49.432;8.680;2023-11-19T02:16:03;0.50;;;0.50;;
10416;SDS011;62605;49.432;8.680;2023-11-19T02:18:32;0.40;;;0.40;;
10416;SDS011;62605;49.432;8.680;2023-11-19T02:20:59;0.40;;;0.40;;
10416;SDS011;62605;49.432;8.680;2023-11-19T02:23:27;0.67;;;0.47;;
10416;SDS011;62605;49.432;8.680;2023-11-19T02:25:59;0.60;;;0.40;;
10416;SDS011;62605;49.432;8.680;2023-11-19T02:28:32;0.60;;;0.60;;
10416;SDS011;62605;49.432;8.680;2023-11-19T02:31:00;0.70;;;0.70;;
10416;SDS011;62605;49.432;8.680;2023-11-19T02:33:30;0.73;;;0.70;;
10416;SDS011;62605;49.432;8.680;2023-11-19T02:35:57;0.97;;;0.80;;
10416;SDS011;62605;49.432;8.680;2023-11-19T02:38:24;2.83;;;0.97;;
10416;SDS011;62605;49.432;8.680;2023-11-19T02:40:52;0.80;;;0.80;;
10416;SDS011;62605;49.432;8.680;2023-11-19T02:43:19;1.00;;;1.00;;
10416;SDS011;62605;49.432;8.680;2023-11-19T02:45:47;1.63;;;1.07;;
10416;SDS011;62605;49.432;8.680;2023-11-19T02:48:16;0.73;;;0.73;;
10416;SDS011;62605;49.432;8.680;2023-11-19T02:50:44;0.80;;;0.80;;
10416;SDS011;62605;49.432;8.680;2023-11-19T02:53:13;0.70;;;0.70;;
10416;SDS011;62605;49.432;8.680;2023-11-19T02:55:48;0.83;;;0.83;;
10416;SDS011;62605;49.432;8.680;2023-11-19T02:58:16;0.70;;;0.70;;
10416;SDS011;62605;49.432;8.680;2023-11-19T03:00:50;0.80;;;0.80;;
10416;SDS011;62605;49.432;8.680;2023-11-19T03:03:22;0.43;;;0.43;;
10416;SDS011;62605;49.432;8.680;2023-11-19T03:05:54;0.90;;;0.90;;
10416;SDS011;62605;49.432;8.680;2023-11-19T03:08:23;0.87;;;0.80;;
10416;SDS011;62605;49.432;8.680;2023-11-19T03:10:50;2.57;;;0.50;;
10416;SDS011;62605;49.432;8.680;2023-11-19T03:13:17;0.77;;;0.50;;
10416;SDS011;62605;49.432;8.680;2023-11-19T03:15:44;0.50;;;0.50;;
10416;SDS011;62605;49.432;8.680;2023-11-19T03:18:13;0.77;;;0.77;;
10416;SDS011;62605;49.432;8.680;2023-11-19T03:20:42;0.67;;;0.60;;
10416;SDS011;62605;49.432;8.680;2023-11-19T03:23:10;0.87;;;0.73;;
10416;SDS011;62605;49.432;8.680;2023-11-19T03:25:37;1.70;;;0.87;;
10416;SDS011;62605;49.432;8.680;2023-11-19T03:28:05;0.63;;;0.63;;
10416;SDS011;62605;49.432;8.680;2023-11-19T03:30:36;3.17;;;0.87;;
10416;SDS011;62605;49.432;8.680;2023-11-19T03:33:03;0.60;;;0.60;;
10416;SDS011;62605;49.432;8.680;2023-11-19T03:35:32;0.33;;;0.33;;
10416;SDS011;62605;49.432;8.680;2023-11-19T03:38:02;0.60;;;0.60;;
10416;SDS011;62605;49.432;8.680;2023-11-19T03:40:29;0.57;;;0.57;;
10416;SDS011;62605;49.432;8.680;2023-11-19T03:42:57;0.97;;;0.80;;
10416;SDS011;62605;49.432;8.680;2023-11-19T03:45:24;0.70;;;0.70;;
10416;SDS011;62605;49.432;8.680;2023-11-19T03:47:53;0.70;;;0.70;;
10416;SDS011;62605;49.432;8.680;2023-11-19T03:50:20;0.80;;;0.80;;
10416;SDS011;62605;49.432;8.680;2023-11-19T03:52:49;0.40;;;0.40;;
10416;SDS011;62605;49.432;8.680;2023-11-19T03:55:17;0.97;;;0.90;;
10416;SDS011;62605;49.432;8.680;2023-11-19T03:57:44;0.80;;;0.80;;
10416;SDS011;62605;49.432;8.680;2023-11-19T04:00:13;0.80;;;0.80;;
10416;SDS011;62605;49.432;8.680;2023-11-19T04:02:42;0.53;;;0.53;;
10416;SDS011;62605;49.432;8.680;2023-11-19T04:05:15;0.83;;;0.83;;
10416;SDS011;62605;49.432;8.680;2023-11-19T04:07:44;0.77;;;0.70;;
10416;SDS011;62605;49.432;8.680;2023-11-19T04:10:13;1.83;;;0.70;;
10416;SDS011;62605;49.432;8.680;2023-11-19T04:12:43;0.97;;;0.87;;
10416;SDS011;62605;49.432;8.680;2023-11-19T04:15:11;1.00;;;0.90;;
10416;SDS011;62605;49.432;8.680;2023-11-19T04:17:40;0.60;;;0.60;;
10416;SDS011;62605;49.432;8.680;2023-11-19T04:20:09;0.60;;;0.60;;
10416;SDS011;62605;49.432;8.680;2023-11-19T04:22:39;0.80;;;0.80;;
10416;SDS011;62605;49.432;8.680;2023-11-19T04:25:07;1.03;;;0.80;;
10416;SDS011;62605;49.432;8.680;2023-11-19T04:27:46;0.80;;;0.70;;
10416;SDS011;62605;49.432;8.680;2023-11-19T04:30:15;2.67;;;1.03;;
10416;SDS011;62605;49.432;8.680;2023-11-19T04:32:47;0.87;;;0.83;;
10416;SDS011;62605;49.432;8.680;2023-11-19T04:35:15;0.90;;;0.80;;
10416;SDS011;62605;49.432;8.680;2023-11-19T04:37:44;1.10;;;0.90;;
10416;SDS011;62605;49.432;8.680;2023-11-19T04:43:11;1.07;;;0.70;;
10416;SDS011;62605;49.432;8.680;2023-11-19T04:45:39;1.53;;;0.73;;
10416;SDS011;62605;49.432;8.680;2023-11-19T04:48:06;0.70;;;0.70;;
10416;SDS011;62605;49.432;8.680;2023-11-19T04:50:34;1.30;;;1.20;;
10416;SDS011;62605;49.432;8.680;2023-11-19T04:53:02;2.23;;;1.03;;
10416;SDS011;62605;49.432;8.680;2023-11-19T04:55:30;0.93;;;0.87;;
10416;SDS011;62605;49.432;8.680;2023-11-19T04:57:58;0.97;;;0.87;;
10416;SDS011;62605;49.432;8.680;2023-11-19T05:00:27;1.00;;;0.90;;
10416;SDS011;62605;49.432;8.680;2023-11-19T05:02:55;1.20;;;1.10;;
10416;SDS011;62605;49.432;8.680;2023-11-19T05:05:22;0.77;;;0.77;;
10416;SDS011;62605;49.432;8.680;2023-11-19T05:07:53;0.83;;;0.83;;
10416;SDS011;62605;49.432;8.680;2023-11-19T05:10:21;2.20;;;0.90;;
10416;SDS011;62605;49.432;8.680;2023-11-19T05:12:50;0.80;;;0.70;;
10416;SDS011;62605;49.432;8.680;2023-11-19T05:15:17;2.20;;;0.97;;
10416;SDS011;62605;49.432;8.680;2023-11-19T05:17:46;1.03;;;0.90;;
10416;SDS011;62605;49.432;8.680;2023-11-19T05:20:14;1.33;;;1.20;;
10416;SDS011;62605;49.432;8.680;2023-11-19T05:22:45;1.77;;;1.20;;
10416;SDS011;62605;49.432;8.680;2023-11-19T05:25:12;1.00;;;0.90;;
10416;SDS011;62605;49.432;8.680;2023-11-19T05:27:40;1.00;;;0.77;;
10416;SDS011;62605;49.432;8.680;2023-11-19T05:30:08;1.33;;;1.23;;
10416;SDS011;62605;49.432;8.680;2023-11-19T05:32:36;0.80;;;0.80;;
10416;SDS011;62605;49.432;8.680;2023-11-19T05:35:06;0.97;;;0.97;;
10416;SDS011;62605;49.432;8.680;2023-11-19T05:37:36;1.33;;;1.23;;
10416;SDS011;62605;49.432;8.680;2023-11-19T05:40:04;0.93;;;0.90;;
10416;SDS011;62605;49.432;8.680;2023-11-19T05:42:39;1.00;;;0.90;;
10416;SDS011;62605;49.432;8.680;2023-11-19T05:45:10;1.73;;;1.10;;
10416;SDS011;62605;49.432;8.680;2023-11-19T05:47:39;2.37;;;1.20;;
10416;SDS011;62605;49.432;8.680;2023-11-19T05:50:09;1.20;;;1.03;;
10416;SDS011;62605;49.432;8.680;2023-11-19T05:52:45;1.57;;;1.17;;
10416;SDS011;62605;49.432;8.680;2023-11-19T05:55:13;1.47;;;1.37;;
10416;SDS011;62605;49.432;8.680;2023-11-19T05:57:41;1.10;;;1.00;;
10416;SDS011;62605;49.432;8.680;2023-11-19T06:00:10;0.93;;;0.93;;
10416;SDS011;62605;49.432;8.680;2023-11-19T06:02:40;1.70;;;1.10;;
10416;SDS011;62605;49.432;8.680;2023-11-19T06:05:09;2.83;;;1.13;;
10416;SDS011;62605;49.432;8.680;2023-11-19T06:07:36;0.80;;;0.80;;
10416;SDS011;62605;49.432;8.680;2023-11-19T06:10:10;1.30;;;1.13;;
10416;SDS011;62605;49.432;8.680;2023-11-19T06:12:39;2.37;;;1.10;;
10416;SDS011;62605;49.432;8.680;2023-11-19T06:15:07;2.00;;;1.23;;
10416;SDS011;62605;49.432;8.680;2023-11-19T06:17:35;2.77;;;1.00;;
10416;SDS011;62605;49.432;8.680;2023-11-19T06:20:04;1.47;;;1.07;;
10416;SDS011;62605;49.432;8.680;2023-11-19T06:22:35;1.30;;;1.07;;
10416;SDS011;62605;49.432;8.680;2023-11-19T06:25:09;1.37;;;1.03;;
10416;SDS011;62605;49.432;8.680;2023-11-19T06:27:40;0.80;;;0.80;;
10416;SDS011;62605;49.432;8.680;2023-11-19T06:30:19;1.10;;;1.00;;
10416;SDS011;62605;49.432;8.680;2023-11-19T06:32:47;0.60;;;0.60;;
10416;SDS011;62605;49.432;8.680;2023-11-19T06:38:13;0.70;;;0.70;;
10416;SDS011;62605;49.432;8.680;2023-11-19T06:40:41;0.70;;;0.70;;
10416;SDS011;62605;49.432;8.680;2023-11-19T06:43:08;0.67;;;0.67;;
10416;SDS011;62605;49.432;8.680;2023-11-19T06:45:36;1.07;;;0.97;;
10416;SDS011;62605;49.432;8.680;2023-11-19T06:48:09;1.10;;;1.00;;
10416;SDS011;62605;49.432;8.680;2023-11-19T06:50:36;0.87;;;0.80;;
10416;SDS011;62605;49.432;8.680;2023-11-19T06:53:04;1.57;;;0.90;;
10416;SDS011;62605;49.432;8.680;2023-11-19T06:55:44;1.00;;;1.00;;
10416;SDS011;62605;49.432;8.680;2023-11-19T06:58:13;2.73;;;0.70;;
10416;SDS011;62605;49.432;8.680;2023-11-19T07:00:45;1.37;;;0.63;;
10416;SDS011;62605;49.432;8.680;2023-11-19T07:03:15;0.77;;;0.77;;
10416;SDS011;62605;49.432;8.680;2023-11-19T07:05:43;0.60;;;0.60;;
10416;SDS011;62605;49.432;8.680;2023-11-19T07:08:11;0.60;;;0.60;;
10416;SDS011;62605;49.432;8.680;2023-11-19T07:10:40;1.60;;;0.80;;
10416;SDS011;62605;49.432;8.680;2023-11-19T07:13:07;0.43;;;0.43;;
10416;SDS011;62605;49.432;8.680;2023-11-19T07:15:35;1.17;;;0.63;;
10416;SDS011;62605;49.432;8.680;2023-11-19T07:18:05;2.07;;;0.80;;
10416;SDS011;62605;49.432;8.680;2023-11-19T07:20:41;3.23;;;0.60;;
10416;SDS011;62605;49.432;8.680;2023-11-19T07:23:11;1.83;;;0.60;;
10416;SDS011;62605;49.432;8.680;2023-11-19T07:25:44;1.00;;;1.00;;
10416;SDS011;62605;49.432;8.680;2023-11-19T07:28:18;0.83;;;0.60;;
10416;SDS011;62605;49.432;8.680;2023-11-19T07:31:03;1.63;;;0.70;;
10416;SDS011;62605;49.432;8.680;2023-11-19T07:34:17;1.60;;;0.50;;
10416;SDS011;62605;49.432;8.680;2023-11-19T07:36:50;0.70;;;0.70;;
10416;SDS011;62605;49.432;8.680;2023-11-19T07:39:23;0.50;;;0.50;;
10416;SDS011;62605;49.432;8.680;2023-11-19T07:42:09;0.40;;;0.40;;
10416;SDS011;62605;49.432;8.680;2023-11-19T07:44:49;0.73;;;0.73;;
10416;SDS011;62605;49.432;8.680;2023-11-19T07:47:27;0.70;;;0.70;;
10416;SDS011;62605;49.432;8.680;2023-11-19T07:49:57;0.70;;;0.70;;
10416;SDS011;62605;49.432;8.680;2023-11-19T07:52:31;1.40;;;0.73;;
10416;SDS011;62605;49.432;8.680;2023-11-19T07:54:58;0.60;;;0.60;;
10416;SDS011;62605;49.432;8.680;2023-11-19T07:57:31;0.53;;;0.53;;
10416;SDS011;62605;49.432;8.680;2023-11-19T08:00:08;0.63;;;0.40;;
10416;SDS011;62605;49.432;8.680;2023-11-19T08:03:18;0.70;;;0.57;;
10416;SDS011;62605;49.432;8.680;2023-11-19T08:06:14;0.60;;;0.60;;
10416;SDS011;62605;49.432;8.680;2023-11-19T08:08:43;0.67;;;0.67;;
10416;SDS011;62605;49.432;8.680;2023-11-19T08:11:26;0.60;;;0.60;;
10416;SDS011;62605;49.432;8.680;2023-11-19T08:13:55;1.27;;;0.97;;
10416;SDS011;62605;49.432;8.680;2023-11-19T08:16:24;0.63;;;0.63;;
10416;SDS011;62605;49.432;8.680;2023-11-19T08:18:52;2.90;;;1.70;;
10416;SDS011;62605;49.432;8.680;2023-11-19T08:21:20;1.10;;;1.00;;
10416;SDS011;62605;49.432;8.680;2023-11-19T08:23:48;0.53;;;0.53;;
10416;SDS011;62605;49.432;8.680;2023-11-19T08:26:17;0.90;;;0.83;;
10416;SDS011;62605;49.432;8.680;2023-11-19T08:28:48;0.87;;;0.70;;
10416;SDS011;62605;49.432;8.680;2023-11-19T08:31:24;0.80;;;0.60;;
10416;SDS011;62605;49.432;8.680;2023-11-19T08:33:53;1.13;;;1.03;;
10416;SDS011;62605;49.432;8.680;2023-11-19T08:36:20;0.50;;;0.50;;
10416;SDS011;62605;49.432;8.680;2023-11-19T08:38:47;0.50;;;0.50;;
10416;SDS011;62605;49.432;8.680;2023-11-19T08:41:17;0.60;;;0.60;;
10416;SDS011;62605;49.432;8.680;2023-11-19T08:43:44;0.77;;;0.77;;
10416;SDS011;62605;49.432;8.680;2023-11-19T08:46:12;0.70;;;0.70;;
10416;SDS011;62605;49.432;8.680;2023-11-19T08:48:41;0.50;;;0.50;;
10416;SDS011;62605;49.432;8.680;2023-11-19T08:51:08;0.60;;;0.60;;
10416;SDS011;62605;49.432;8.680;2023-11-19T08:53:36;0.60;;;0.60;;
10416;SDS011;62605;49.432;8.680;2023-11-19T08:56:04;1.93;;;0.60;;
10416;SDS011;62605;49.432;8.680;2023-11-19T08:58:33;0.40;;;0.40;;
10416;SDS011;62605;49.432;8.680;2023-11-19T09:01:00;0.70;;;0.53;;
10416;SDS011;62605;49.432;8.680;2023-11-19T09:03:30;2.03;;;0.90;;
10416;SDS011;62605;49.432;8.680;2023-11-19T09:06:00;2.17;;;0.97;;
10416;SDS011;62605;49.432;8.680;2023-11-19T09:08:28;0.73;;;0.60;;
10416;SDS011;62605;49.432;8.680;2023-11-19T09:10:57;0.60;;;0.60;;
10416;SDS011;62605;49.432;8.680;2023-11-19T09:13:33;0.50;;;0.50;;
10416;SDS011;62605;49.432;8.680;2023-11-19T09:16:00;0.93;;;0.50;;
10416;SDS011;62605;49.432;8.680;2023-11-19T09:18:29;1.47;;;0.67;;
10416;SDS011;62605;49.432;8.680;2023-11-19T09:20:57;0.80;;;0.80;;
10416;SDS011;62605;49.432;8.680;2023-11-19T09:23:26;0.50;;;0.50;;
10416;SDS011;62605;49.432;8.680;2023-11-19T09:25:54;0.53;;;0.53;;
10416;SDS011;62605;49.432;8.680;2023-11-19T09:28:22;0.70;;;0.67;;
10416;SDS011;62605;49.432;8.680;2023-11-19T09:30:59;3.60;;;0.83;;
10416;SDS011;62605;49.432;8.680;2023-11-19T09:33:30;1.20;;;1.10;;
10416;SDS011;62605;49.432;8.680;2023-11-19T09:35:59;2.13;;;1.00;;
10416;SDS011;62605;49.432;8.680;2023-11-19T09:38:28;0.50;;;0.50;;
10416;SDS011;62605;49.432;8.680;2023-11-19T09:40:55;1.33;;;0.70;;
10416;SDS011;62605;49.432;8.680;2023-11-19T09:43:26;1.10;;;1.00;;
10416;SDS011;62605;49.432;8.680;2023-11-19T09:45:56;0.80;;;0.70;;
10416;SDS011;62605;49.432;8.680;2023-11-19T09:48:40;0.73;;;0.60;;
10416;SDS011;62605;49.432;8.680;2023-11-19T09:51:18;0.70;;;0.70;;
10416;SDS011;62605;49.432;8.680;2023-11-19T09:53:47;0.80;;;0.60;;
10416;SDS011;62605;49.432;8.680;2023-11-19T09:56:18;2.27;;;0.70;;
10416;SDS011;62605;49.432;8.680;2023-11-19T09:58:45;0.70;;;0.70;;
10416;SDS011;62605;49.432;8.680;2023-11-19T10:01:13;0.70;;;0.70;;
10416;SDS011;62605;49.432;8.680;2023-11-19T10:03:41;0.77;;;0.67;;
10416;SDS011;62605;49.432;8.680;2023-11-19T10:06:10;0.90;;;0.90;;
10416;SDS011;62605;49.432;8.680;2023-11-19T10:08:39;0.67;;;0.67;;
10416;SDS011;62605;49.432;8.680;2023-11-19T10:11:09;1.03;;;0.70;;
10416;SDS011;62605;49.432;8.680;2023-11-19T10:13:41;1.90;;;0.73;;
10416;SDS011;62605;49.432;8.680;2023-11-19T10:16:18;3.03;;;0.90;;
10416;SDS011;62605;49.432;8.680;2023-11-19T10:18:46;0.83;;;0.60;;
10416;SDS011;62605;49.432;8.680;2023-11-19T10:21:18;0.70;;;0.70;;
10416;SDS011;62605;49.432;8.680;2023-11-19T10:23:57;0.70;;;0.70;;
10416;SDS011;62605;49.432;8.680;2023-11-19T10:26:27;0.80;;;0.80;;
10416;SDS011;62605;49.432;8.680;2023-11-19T10:28:59;0.60;;;0.60;;
10416;SDS011;62605;49.432;8.680;2023-11-19T10:31:27;1.17;;;0.70;;
10416;SDS011;62605;49.432;8.680;2023-11-19T10:33:54;1.60;;;0.83;;
10416;SDS011;62605;49.432;8.680;2023-11-19T10:36:21;2.27;;;0.93;;
10416;SDS011;62605;49.432;8.680;2023-11-19T10:38:53;0.97;;;0.87;;
10416;SDS011;62605;49.432;8.680;2023-11-19T10:41:28;0.70;;;0.70;;
10416;SDS011;62605;49.432;8.680;2023-11-19T10:43:56;0.83;;;0.83;;
10416;SDS011;62605;49.432;8.680;2023-11-19T10:46:35;0.63;;;0.63;;
10416;SDS011;62605;49.432;8.680;2023-11-19T10:49:04;1.03;;;0.90;;
10416;SDS011;62605;49.432;8.680;2023-11-19T10:51:31;0.70;;;0.70;;
10416;SDS011;62605;49.432;8.680;2023-11-19T10:54:02;1.40;;;0.73;;
10416;SDS011;62605;49.432;8.680;2023-11-19T10:56:33;0.60;;;0.60;;
10416;SDS011;62605;49.432;8.680;2023-11-19T10:59:01;0.73;;;0.73;;
10416;SDS011;62605;49.432;8.680;2023-11-19T11:01:32;0.80;;;0.80;;
10416;SDS011;62605;49.432;8.680;2023-11-19T11:04:05;0.90;;;0.77;;
10416;SDS011;62605;49.432;8.680;2023-11-19T11:06:41;0.70;;;0.70;;
10416;SDS011;62605;49.432;8.680;2023-11-19T11:09:09;1.03;;;0.73;;
10416;SDS011;62605;49.432;8.680;2023-11-19T11:11:40;2.17;;;0.90;;
10416;SDS011;62605;49.432;8.680;2023-11-19T11:14:13;0.50;;;0.50;;
10416;SDS011;62605;49.432;8.680;2023-11-19T11:16:41;0.90;;;0.70;;
10416;SDS011;62605;49.432;8.680;2023-11-19T11:19:10;2.53;;;0.90;;
10416;SDS011;62605;49.432;8.680;2023-11-19T11:21:38;0.70;;;0.70;;
10416;SDS011;62605;49.432;8.680;2023-11-19T11:24:16;0.90;;;0.80;;
10416;SDS011;62605;49.432;8.680;2023-11-19T11:27:28;0.70;;;0.70;;
10416;SDS011;62605;49.432;8.680;2023-11-19T11:30:31;0.83;;;0.57;;
10416;SDS011;62605;49.432;8.680;2023-11-19T11:33:15;0.77;;;0.70;;
10416;SDS011;62605;49.432;8.680;2023-11-19T11:35:55;0.98;;;0.75;;
10416;SDS011;62605;49.432;8.680;2023-11-19T11:38:32;0.83;;;0.67;;
10416;SDS011;62605;49.432;8.680;2023-11-19T11:41:17;1.07;;;0.70;;
10416;SDS011;62605;49.432;8.680;2023-11-19T11:43:47;0.70;;;0.60;;
10416;SDS011;62605;49.432;8.680;2023-11-19T11:49:27;1.73;;;0.73;;
10416;SDS011;62605;49.432;8.680;2023-11-19T11:52:03;2.05;;;0.80;;
10416;SDS011;62605;49.432;8.680;2023-11-19T11:54:32;0.90;;;0.90;;
10416;SDS011;62605;49.432;8.680;2023-11-19T11:57:02;0.82;;;0.80;;
10416;SDS011;62605;49.432;8.680;2023-11-19T12:02:17;0.75;;;0.57;;
10416;SDS011;62605;49.432;8.680;2023-11-19T12:04:47;0.65;;;0.52;;
10416;SDS011;62605;49.432;8.680;2023-11-19T12:07:16;0.40;;;0.40;;
10416;SDS011;62605;49.432;8.680;2023-11-19T12:09:48;0.43;;;0.38;;
10416;SDS011;62605;49.432;8.680;2023-11-19T12:12:21;0.80;;;0.50;;
10416;SDS011;62605;49.432;8.680;2023-11-19T12:15:01;0.77;;;0.77;;
10416;SDS011;62605;49.432;8.680;2023-11-19T12:17:37;0.95;;;0.60;;
10416;SDS011;62605;49.432;8.680;2023-11-19T12:20:11;1.17;;;0.70;;
10416;SDS011;62605;49.432;8.680;2023-11-19T12:22:39;1.00;;;0.70;;
10416;SDS011;62605;49.432;8.680;2023-11-19T12:25:07;0.50;;;0.50;;
10416;SDS011;62605;49.432;8.680;2023-11-19T12:27:36;0.98;;;0.93;;
10416;SDS011;62605;49.432;8.680;2023-11-19T12:30:08;0.73;;;0.60;;
10416;SDS011;62605;49.432;8.680;2023-11-19T12:32:39;0.98;;;0.70;;
10416;SDS011;62605;49.432;8.680;2023-11-19T12:35:07;1.75;;;0.60;;
10416;SDS011;62605;49.432;8.680;2023-11-19T12:37:44;0.57;;;0.55;;
10416;SDS011;62605;49.432;8.680;2023-11-19T12:40:13;0.85;;;0.55;;
10416;SDS011;62605;49.432;8.680;2023-11-19T12:42:42;1.38;;;0.73;;
10416;SDS011;62605;49.432;8.680;2023-11-19T12:45:12;0.95;;;0.52;;
10416;SDS011;62605;49.432;8.680;2023-11-19T12:47:41;2.40;;;0.65;;
10416;SDS011;62605;49.432;8.680;2023-11-19T12:50:09;1.30;;;0.47;;
10416;SDS011;62605;49.432;8.680;2023-11-19T12:52:37;0.60;;;0.60;;
10416;SDS011;62605;49.432;8.680;2023-11-19T12:55:05;0.95;;;0.80;;
10416;SDS011;62605;49.432;8.680;2023-11-19T12:57:50;1.13;;;0.70;;
10416;SDS011;62605;49.432;8.680;2023-11-19T13:00:21;0.55;;;0.55;;
10416;SDS011;62605;49.432;8.680;2023-11-19T13:02:50;0.70;;;0.40;;
10416;SDS011;62605;49.432;8.680;2023-11-19T13:05:26;0.68;;;0.65;;
10416;SDS011;62605;49.432;8.680;2023-11-19T13:08:02;2.17;;;0.77;;
10416;SDS011;62605;49.432;8.680;2023-11-19T13:10:31;0.47;;;0.47;;
10416;SDS011;62605;49.432;8.680;2023-11-19T13:13:05;1.17;;;0.70;;
10416;SDS011;62605;49.432;8.680;2023-11-19T13:15:35;0.70;;;0.70;;
10416;SDS011;62605;49.432;8.680;2023-11-19T13:18:02;0.50;;;0.50;;
10416;SDS011;62605;49.432;8.680;2023-11-19T13:20:29;0.57;;;0.57;;
10416;SDS011;62605;49.432;8.680;2023-11-19T13:22:58;0.40;;;0.40;;
10416;SDS011;62605;49.432;8.680;2023-11-19T13:25:27;1.90;;;0.57;;
10416;SDS011;62605;49.432;8.680;2023-11-19T13:27:55;0.60;;;0.60;;
10416;SDS011;62605;49.432;8.680;2023-11-19T13:30:23;0.43;;;0.43;;
10416;SDS011;62605;49.432;8.680;2023-11-19T13:32:52;0.55;;;0.52;;
10416;SDS011;62605;49.432;8.680;2023-11-19T13:35:21;0.50;;;0.50;;
10416;SDS011;62605;49.432;8.680;2023-11-19T13:37:49;1.00;;;0.60;;
10416;SDS011;62605;49.432;8.680;2023-11-19T13:40:18;3.95;;;0.50;;
10416;SDS011;62605;49.432;8.680;2023-11-19T13:42:47;0.50;;;0.50;;
10416;SDS011;62605;49.432;8.680;2023-11-19T13:45:15;0.90;;;0.90;;
10416;SDS011;62605;49.432;8.680;2023-11-19T13:47:44;0.60;;;0.60;;
10416;SDS011;62605;49.432;8.680;2023-11-19T13:50:13;1.65;;;0.45;;
10416;SDS011;62605;49.432;8.680;2023-11-19T13:52:43;1.67;;;0.52;;
10416;SDS011;62605;49.432;8.680;2023-11-19T13:55:12;0.40;;;0.40;;
10416;SDS011;62605;49.432;8.680;2023-11-19T13:57:40;3.20;;;0.50;;
10416;SDS011;62605;49.432;8.680;2023-11-19T14:03:07;0.50;;;0.50;;
10416;SDS011;62605;49.432;8.680;2023-11-19T14:05:38;0.35;;;0.35;;
10416;SDS011;62605;49.432;8.680;2023-11-19T14:08:06;0.50;;;0.50;;
10416;SDS011;62605;49.432;8.680;2023-11-19T14:10:36;1.90;;;0.52;;
10416;SDS011;62605;49.432;8.680;2023-11-19T14:13:06;1.67;;;0.40;;
10416;SDS011;62605;49.432;8.680;2023-11-19T14:15:33;1.55;;;0.57;;
10416;SDS011;62605;49.432;8.680;2023-11-19T14:18:01;0.75;;;0.60;;
10416;SDS011;62605;49.432;8.680;2023-11-19T14:20:29;0.80;;;0.60;;
10416;SDS011;62605;49.432;8.680;2023-11-19T14:22:58;1.85;;;0.52;;
10416;SDS011;62605;49.432;8.680;2023-11-19T14:25:26;0.73;;;0.50;;
10416;SDS011;62605;49.432;8.680;2023-11-19T14:27:53;1.98;;;0.50;;
10416;SDS011;62605;49.432;8.680;2023-11-19T14:30:21;0.30;;;0.30;;
10416;SDS011;62605;49.432;8.680;2023-11-19T14:32:48;2.25;;;0.60;;
10416;SDS011;62605;49.432;8.680;2023-11-19T14:35:16;2.85;;;0.55;;
10416;SDS011;62605;49.432;8.680;2023-11-19T14:37:45;0.32;;;0.32;;
10416;SDS011;62605;49.432;8.680;2023-11-19T14:40:14;0.32;;;0.30;;
10416;SDS011;62605;49.432;8.680;2023-11-19T14:42:41;0.85;;;0.80;;
10416;SDS011;62605;49.432;8.680;2023-11-19T14:45:10;0.77;;;0.55;;
10416;SDS011;62605;49.432;8.680;2023-11-19T14:47:41;2.25;;;0.60;;
10416;SDS011;62605;49.432;8.680;2023-11-19T14:50:09;0.50;;;0.50;;
10416;SDS011;62605;49.432;8.680;2023-11-19T14:52:37;0.40;;;0.40;;
10416;SDS011;62605;49.432;8.680;2023-11-19T14:55:05;0.80;;;0.60;;
10416;SDS011;62605;49.432;8.680;2023-11-19T14:57:34;2.25;;;0.52;;
10416;SDS011;62605;49.432;8.680;2023-11-19T15:00:04;0.90;;;0.90;;
10416;SDS011;62605;49.432;8.680;2023-11-19T15:02:38;1.00;;;0.55;;
10416;SDS011;62605;49.432;8.680;2023-11-19T15:05:07;3.58;;;0.70;;
10416;SDS011;62605;49.432;8.680;2023-11-19T15:07:36;2.38;;;0.85;;
10416;SDS011;62605;49.432;8.680;2023-11-19T15:10:03;0.73;;;0.73;;
10416;SDS011;62605;49.432;8.680;2023-11-19T15:12:37;1.17;;;0.55;;
10416;SDS011;62605;49.432;8.680;2023-11-19T15:15:07;0.52;;;0.47;;
10416;SDS011;62605;49.432;8.680;2023-11-19T15:17:38;0.50;;;0.50;;
10416;SDS011;62605;49.432;8.680;2023-11-19T15:20:06;0.90;;;0.60;;
10416;SDS011;62605;49.432;8.680;2023-11-19T15:22:34;2.22;;;0.63;;